Lillyville, Illinois
Current Conditions -  °F | °C
As of 4:55 PM on Saturday 25 Oct 2014 (Local Time) from K1H2 Reporting Station
Clear Clear  
Wind Chill: 77°   Ceiling: Unl
Heat Index: 78°   Visibility: 10mi
Dew Point: 48°   Wind: 6mph
Humidity: 35%   Direction: 290°WNW
Pressure: 29.99"   Gusts: NA
Location:  39.1183°N, 88.6059°W
Report Text: K1H2 252155Z AUTO 29005KT 10SM CLR 25/09 A2999 RMK AO2 T02510087
Loading
Personal Weather Stations






























Interactive Weather Map New forecast layout! Learn more

10-Day Weather Forecast

Advertisements
Track Severe Weather on mobile